createdAt,value
2024-01-05T00:02:01.919Z,2.02
2024-01-05T00:04:33.617Z,4.26
2024-01-05T00:07:05.648Z,5.77
2024-01-05T00:09:37.482Z,4.82
2024-01-05T00:12:10.621Z,3.65
2024-01-05T00:14:42.623Z,2.77
2024-01-05T00:17:14.462Z,2.14
2024-01-05T00:19:46.172Z,1.63
2024-01-05T00:22:18.348Z,1.77
2024-01-05T00:24:48.530Z,4.17
2024-01-05T00:27:20.325Z,5.91
2024-01-05T00:29:52.004Z,5.38
2024-01-05T00:32:23.857Z,4.11
2024-01-05T00:34:55.540Z,3.08
2024-01-05T00:37:27.321Z,2.28
2024-01-05T00:39:59.001Z,1.69
2024-01-05T00:42:30.801Z,1.21
2024-01-05T00:45:01.302Z,0.82
2024-01-05T00:47:33.058Z,0.50
2024-01-05T00:50:05.182Z,0.77
2024-01-05T00:52:36.933Z,3.28
2024-01-05T00:55:11.055Z,5.01
2024-01-05T00:57:43.170Z,4.16
2024-01-05T01:00:14.676Z,3.04
2024-01-05T01:02:46.473Z,2.25
2024-01-05T01:05:18.804Z,1.67
2024-01-05T01:07:50.797Z,1.23
2024-01-05T01:10:22.581Z,0.89
2024-01-05T01:12:54.317Z,0.59
2024-01-05T01:15:26.174Z,0.35
2024-01-05T01:17:58.136Z,0.73
2024-01-05T01:20:29.890Z,3.23
2024-01-05T01:23:02.290Z,5.06
2024-01-05T01:25:33.978Z,4.47
2024-01-05T01:28:06.685Z,3.40
2024-01-05T01:30:38.474Z,2.57
2024-01-05T01:33:10.987Z,1.95
2024-01-05T01:35:42.745Z,1.46
2024-01-05T01:38:14.500Z,1.02
2024-01-05T01:40:49.940Z,0.67
2024-01-05T01:43:23.702Z,0.41
2024-01-05T01:45:58.058Z,0.18
2024-01-05T01:48:32.071Z,-0.02
2024-01-05T01:51:05.073Z,0.36
2024-01-05T01:53:36.826Z,3.07
2024-01-05T01:56:12.769Z,4.74
2024-01-05T01:58:46.930Z,3.88
2024-01-05T02:01:18.665Z,2.81
2024-01-05T02:03:51.142Z,2.05
2024-01-05T02:06:23.565Z,1.48
2024-01-05T02:08:55.323Z,1.07
2024-01-05T02:11:27.160Z,0.72
2024-01-05T02:13:59.047Z,0.43
2024-01-05T02:16:30.771Z,0.20
2024-01-05T02:19:02.757Z,0.02
2024-01-05T02:21:42.055Z,-0.13
2024-01-05T02:24:14.762Z,-0.22
2024-01-05T02:26:47.072Z,0.05
2024-01-05T02:29:23.770Z,2.59
2024-01-05T02:31:55.884Z,4.42
2024-01-05T02:34:26.292Z,3.56
2024-01-05T02:36:58.040Z,2.40
2024-01-05T02:39:29.922Z,1.62
2024-01-05T02:42:01.777Z,1.12
2024-01-05T02:44:33.473Z,0.75
2024-01-05T02:47:05.412Z,0.42
2024-01-05T02:49:37.293Z,0.13
2024-01-05T02:52:09.561Z,-0.13
2024-01-05T02:54:41.236Z,-0.33
2024-01-05T02:57:12.913Z,-0.50
2024-01-05T02:59:44.639Z,-0.65
2024-01-05T03:02:16.290Z,-0.79
2024-01-05T03:04:48.489Z,-0.92
2024-01-05T03:07:20.187Z,-1.02
2024-01-05T03:09:52.050Z,-1.09
2024-01-05T03:12:23.803Z,-1.15
2024-01-05T03:14:55.622Z,-1.19
2024-01-05T03:17:27.327Z,-1.24
2024-01-05T03:19:59.166Z,-1.28
2024-01-05T03:22:32.330Z,-1.28
2024-01-05T03:25:04.926Z,-1.28
2024-01-05T03:27:36.634Z,-1.29
2024-01-05T03:30:12.183Z,-1.31
2024-01-05T03:32:44.049Z,-1.33
2024-01-05T03:35:16.948Z,-1.35
2024-01-05T03:37:49.580Z,-1.38
2024-01-05T03:40:21.332Z,-1.40
2024-01-05T03:42:52.975Z,-1.40
2024-01-05T03:45:24.845Z,-1.40
2024-01-05T03:47:57.543Z,-1.40
2024-01-05T03:50:29.714Z,-1.41
2024-01-05T03:53:01.382Z,-1.41
2024-01-05T03:55:33.102Z,-1.42
2024-01-05T03:58:04.892Z,-1.43
2024-01-05T04:00:36.809Z,-1.44
2024-01-05T04:03:08.903Z,-1.46
2024-01-05T04:05:39.453Z,-1.49
2024-01-05T04:08:12.146Z,-1.50
2024-01-05T04:10:43.950Z,-1.52
2024-01-05T04:13:15.767Z,-1.55
2024-01-05T04:15:47.525Z,-1.58
2024-01-05T04:18:19.415Z,-1.63
2024-01-05T04:20:49.995Z,-1.66
2024-01-05T04:23:21.728Z,-1.38
2024-01-05T04:25:53.870Z,1.10
2024-01-05T04:28:24.039Z,3.54
2024-01-05T04:30:55.913Z,3.44
2024-01-05T04:33:27.889Z,2.42
2024-01-05T04:36:00.228Z,1.62
2024-01-05T04:38:33.018Z,1.09
2024-01-05T04:41:05.060Z,0.65
2024-01-05T04:43:37.277Z,0.25
2024-01-05T04:46:07.819Z,-0.06
2024-01-05T04:48:39.988Z,-0.31
2024-01-05T04:51:12.558Z,-0.52
2024-01-05T04:53:44.286Z,-0.72
2024-01-05T04:56:16.020Z,-0.89
2024-01-05T04:58:47.694Z,-1.04
2024-01-05T05:01:20.440Z,-1.18
2024-01-05T05:03:52.197Z,-1.31
2024-01-05T05:06:23.972Z,-1.42
2024-01-05T05:08:56.162Z,-1.52
2024-01-05T05:11:26.388Z,-1.21
2024-01-05T05:13:58.111Z,1.27
2024-01-05T05:16:29.862Z,3.62
2024-01-05T05:19:01.745Z,3.34
2024-01-05T05:21:35.612Z,2.28
2024-01-05T05:24:07.549Z,1.48
2024-01-05T05:26:39.721Z,0.99
2024-01-05T05:29:09.949Z,0.62
2024-01-05T05:31:41.921Z,0.28
2024-01-05T05:34:12.314Z,-0.03
2024-01-05T05:36:44.118Z,-0.32
2024-01-05T05:39:17.366Z,-0.57
2024-01-05T05:41:49.163Z,-0.78
2024-01-05T05:44:20.836Z,-0.93
2024-01-05T05:46:52.658Z,-1.08
2024-01-05T05:49:24.460Z,-1.20
2024-01-05T05:51:56.391Z,-1.32
2024-01-05T05:54:28.139Z,-1.41
2024-01-05T05:57:01.336Z,-0.97
2024-01-05T05:59:31.492Z,1.75
2024-01-05T06:02:04.311Z,3.93
2024-01-05T06:04:36.189Z,4.03
2024-01-05T06:07:08.318Z,2.94
2024-01-05T06:09:40.296Z,2.07
2024-01-05T06:12:12.301Z,1.43
2024-01-05T06:14:44.127Z,0.92
2024-01-05T06:17:16.166Z,0.52
2024-01-05T06:19:48.543Z,0.19
2024-01-05T06:22:20.931Z,-0.06
2024-01-05T06:24:52.998Z,-0.31
2024-01-05T06:27:32.686Z,-0.54
2024-01-05T06:30:11.624Z,-0.77
2024-01-05T06:32:44.477Z,-0.96
2024-01-05T06:35:16.515Z,-1.11
2024-01-05T06:37:48.452Z,-1.23
2024-01-05T06:40:20.176Z,-1.33
2024-01-05T06:42:52.035Z,-0.65
2024-01-05T06:45:24.464Z,2.15
2024-01-05T06:47:56.285Z,3.95
2024-01-05T06:50:29.260Z,3.30
2024-01-05T06:53:01.294Z,2.23
2024-01-05T06:55:33.029Z,1.50
2024-01-05T06:58:05.468Z,0.93
2024-01-05T07:00:39.505Z,0.50
2024-01-05T07:03:12.317Z,0.16
2024-01-05T07:05:44.606Z,-0.14
2024-01-05T07:08:16.454Z,-0.37
2024-01-05T07:10:48.153Z,-0.59
2024-01-05T07:13:19.978Z,-0.78
2024-01-05T07:15:51.652Z,-0.93
2024-01-05T07:18:23.500Z,-0.01
2024-01-05T07:20:55.500Z,2.95
2024-01-05T07:23:27.223Z,3.20
2024-01-05T07:26:01.783Z,2.08
2024-01-05T07:28:34.170Z,1.22
2024-01-05T07:31:08.343Z,0.68
2024-01-05T07:33:43.210Z,0.25
2024-01-05T07:36:15.195Z,-0.09
2024-01-05T07:38:46.916Z,-0.33
2024-01-05T07:41:20.826Z,-0.55
2024-01-05T07:43:52.570Z,-0.54
2024-01-05T07:46:27.510Z,1.67
2024-01-05T07:48:59.537Z,3.77
2024-01-05T07:51:32.025Z,2.83
2024-01-05T07:54:03.800Z,1.82
2024-01-05T07:56:40.114Z,1.14
2024-01-05T07:59:12.263Z,0.70
2024-01-05T08:01:44.846Z,0.30
2024-01-05T08:04:17.491Z,-0.07
2024-01-05T08:06:52.351Z,-0.33
2024-01-05T08:09:24.521Z,-0.51
2024-01-05T08:11:56.276Z,0.70
2024-01-05T08:14:28.142Z,3.52
2024-01-05T08:16:59.899Z,4.84
2024-01-05T08:19:31.735Z,3.99
2024-01-05T08:22:04.742Z,2.97
2024-01-05T08:24:36.864Z,2.22
2024-01-05T08:27:08.680Z,1.78
2024-01-05T08:29:41.028Z,1.39
2024-01-05T08:32:12.771Z,1.02
2024-01-05T08:34:44.706Z,0.73
2024-01-05T08:37:16.519Z,0.46
2024-01-05T08:39:48.372Z,0.22
2024-01-05T08:42:20.409Z,0.04
2024-01-05T08:44:52.294Z,-0.10
2024-01-05T08:47:24.324Z,-0.20
2024-01-05T08:49:56.359Z,-0.24
2024-01-05T08:52:28.433Z,-0.27
2024-01-05T08:55:00.269Z,0.36
2024-01-05T08:57:32.073Z,3.21
2024-01-05T09:00:04.726Z,4.61
2024-01-05T09:02:36.618Z,3.80
2024-01-05T09:05:09.534Z,2.85
2024-01-05T09:07:41.281Z,2.15
2024-01-05T09:10:13.152Z,1.72
2024-01-05T09:12:45.064Z,1.41
2024-01-05T09:15:19.241Z,1.14
2024-01-05T09:17:52.851Z,0.87
2024-01-05T09:20:24.858Z,0.69
2024-01-05T09:22:56.812Z,0.57
2024-01-05T09:25:28.899Z,0.47
2024-01-05T09:28:06.429Z,0.33
2024-01-05T09:30:38.503Z,0.19
2024-01-05T09:33:10.446Z,0.10
2024-01-05T09:35:42.598Z,0.03
2024-01-05T09:38:14.640Z,0.01
2024-01-05T09:40:47.807Z,0.05
2024-01-05T09:43:23.118Z,0.09
2024-01-05T09:45:58.260Z,0.13
2024-01-05T09:48:36.713Z,0.13
2024-01-05T09:51:16.618Z,0.12
2024-01-05T09:53:49.138Z,0.14
2024-01-05T09:56:22.805Z,0.11
2024-01-05T09:58:57.038Z,0.06
2024-01-05T10:01:31.734Z,0.03
2024-01-05T10:04:05.710Z,0.01
2024-01-05T10:06:37.806Z,0.02
2024-01-05T10:09:10.654Z,0.02
2024-01-05T10:11:43.662Z,0.02
2024-01-05T10:14:15.574Z,0.05
2024-01-05T10:16:49.253Z,0.10
2024-01-05T10:19:23.779Z,0.12
2024-01-05T10:21:55.758Z,0.13
2024-01-05T10:24:31.071Z,0.18
2024-01-05T10:27:06.905Z,0.22
2024-01-05T10:29:43.705Z,0.24
2024-01-05T10:32:21.069Z,0.27
2024-01-05T10:34:55.350Z,0.32
2024-01-05T10:37:27.530Z,0.36
2024-01-05T10:40:04.880Z,0.39
2024-01-05T10:42:36.903Z,0.40
2024-01-05T10:45:10.533Z,0.40
2024-01-05T10:47:45.001Z,0.40
2024-01-05T10:50:19.699Z,0.41
2024-01-05T10:52:52.081Z,0.42
2024-01-05T10:55:24.098Z,0.45
2024-01-05T10:57:56.614Z,0.49
2024-01-05T11:00:28.571Z,0.53
2024-01-05T11:03:11.904Z,0.59
2024-01-05T11:05:47.461Z,0.65
2024-01-05T11:08:35.885Z,0.69
2024-01-05T11:11:18.734Z,0.71
2024-01-05T11:14:09.243Z,0.75
2024-01-05T11:17:04.113Z,0.77
2024-01-05T11:19:56.557Z,0.76
2024-01-05T11:22:33.872Z,0.75
2024-01-05T11:25:08.068Z,0.76
2024-01-05T11:27:40.543Z,0.76
2024-01-05T11:30:13.619Z,0.72
2024-01-05T11:32:47.388Z,0.66
2024-01-05T11:35:45.987Z,0.64
2024-01-05T11:38:31.979Z,0.67
2024-01-05T11:41:19.299Z,0.68
2024-01-05T11:43:52.076Z,0.68
2024-01-05T11:46:47.883Z,0.68
2024-01-05T11:49:39.499Z,0.66
2024-01-05T11:52:11.766Z,0.62
2024-01-05T11:54:42.104Z,0.58
2024-01-05T11:57:14.505Z,0.58
2024-01-05T11:59:48.746Z,0.59
2024-01-05T12:02:22.201Z,0.60
2024-01-05T12:04:54.920Z,0.59
2024-01-05T12:07:31.090Z,0.56
2024-01-05T12:10:02.808Z,0.55
2024-01-05T12:12:34.577Z,0.58
2024-01-05T12:15:13.862Z,0.63
2024-01-05T12:17:45.955Z,0.67
2024-01-05T12:20:17.035Z,0.69
2024-01-05T12:22:53.222Z,0.68
2024-01-05T12:25:24.902Z,0.66
2024-01-05T12:27:57.813Z,0.68
2024-01-05T12:30:29.818Z,0.73
2024-01-05T12:33:02.598Z,0.77
2024-01-05T12:35:34.808Z,0.83
2024-01-05T12:38:07.479Z,0.86
2024-01-05T12:40:39.499Z,0.90
2024-01-05T12:43:13.657Z,0.93
2024-01-05T12:45:49.393Z,0.97
2024-01-05T12:48:21.424Z,1.00
2024-01-05T12:51:04.400Z,1.02
2024-01-05T12:53:36.951Z,1.03
2024-01-05T12:56:17.633Z,1.03
2024-01-05T12:58:50.146Z,1.03
2024-01-05T13:01:23.080Z,1.00
2024-01-05T13:03:57.266Z,0.95
2024-01-05T13:06:31.839Z,0.90
2024-01-05T13:09:03.979Z,0.85
2024-01-05T13:11:35.811Z,1.22
2024-01-05T13:14:08.439Z,3.74
2024-01-05T13:16:40.172Z,5.79
2024-01-05T13:19:12.119Z,5.29
2024-01-05T13:21:43.994Z,4.30
2024-01-05T13:24:15.903Z,3.61
2024-01-05T13:26:47.602Z,3.13
2024-01-05T13:29:19.310Z,2.78
2024-01-05T13:31:51.513Z,2.52
2024-01-05T13:34:23.606Z,2.27
2024-01-05T13:36:56.069Z,2.06
2024-01-05T13:39:28.511Z,1.84
2024-01-05T13:42:00.298Z,1.61
2024-01-05T13:44:32.447Z,1.41
2024-01-05T13:47:02.662Z,1.23
2024-01-05T13:49:34.735Z,1.09
2024-01-05T13:52:07.329Z,1.59
2024-01-05T13:54:39.114Z,4.32
2024-01-05T13:57:10.916Z,5.96
2024-01-05T13:59:42.700Z,5.17
2024-01-05T14:02:14.547Z,4.08
2024-01-05T14:04:46.369Z,3.30
2024-01-05T14:07:18.144Z,2.73
2024-01-05T14:09:49.908Z,2.28
2024-01-05T14:12:21.598Z,1.93
2024-01-05T14:14:53.556Z,1.66
2024-01-05T14:17:25.619Z,1.41
2024-01-05T14:19:57.509Z,1.17
2024-01-05T14:22:29.261Z,0.98
2024-01-05T14:25:01.002Z,0.82
2024-01-05T14:27:32.813Z,1.75
2024-01-05T14:30:05.322Z,4.52
2024-01-05T14:32:37.129Z,5.93
2024-01-05T14:35:11.481Z,5.08
2024-01-05T14:37:43.219Z,4.01
2024-01-05T14:40:18.161Z,3.25
2024-01-05T14:42:49.853Z,2.66
2024-01-05T14:45:21.612Z,2.20
2024-01-05T14:47:53.500Z,1.82
2024-01-05T14:50:25.361Z,1.52
2024-01-05T14:53:04.314Z,1.25
2024-01-05T14:55:43.399Z,0.97
2024-01-05T14:58:13.585Z,0.74
2024-01-05T15:00:45.388Z,0.53
2024-01-05T15:03:17.208Z,0.34
2024-01-05T15:05:49.830Z,0.69
2024-01-05T15:08:22.177Z,3.26
2024-01-05T15:10:54.405Z,5.21
2024-01-05T15:13:26.174Z,4.63
2024-01-05T15:15:59.750Z,3.55
2024-01-05T15:18:33.013Z,2.77
2024-01-05T15:21:07.957Z,2.24
2024-01-05T15:23:42.832Z,1.84
2024-01-05T15:26:15.266Z,1.50
2024-01-05T15:28:46.961Z,1.18
2024-01-05T15:31:22.855Z,0.92
2024-01-05T15:33:57.045Z,0.68
2024-01-05T15:36:29.689Z,0.48
2024-01-05T15:39:01.478Z,0.33
2024-01-05T15:41:33.822Z,0.72
2024-01-05T15:44:05.753Z,3.36
2024-01-05T15:46:37.463Z,5.20
2024-01-05T15:49:09.408Z,4.38
2024-01-05T15:51:41.584Z,3.28
2024-01-05T15:54:13.371Z,2.56
2024-01-05T15:56:45.133Z,1.98
2024-01-05T15:59:16.886Z,1.50
2024-01-05T16:01:51.389Z,1.11
2024-01-05T16:04:23.191Z,0.78
2024-01-05T16:06:55.133Z,1.04
2024-01-05T16:09:26.857Z,3.49
2024-01-05T16:11:59.697Z,5.41
2024-01-05T16:14:31.375Z,4.82
2024-01-05T16:17:03.501Z,3.55
2024-01-05T16:19:34.002Z,2.67
2024-01-05T16:22:06.356Z,2.05
2024-01-05T16:24:38.101Z,1.63
2024-01-05T16:27:10.962Z,1.31
2024-01-05T16:29:42.655Z,1.03
2024-01-05T16:32:15.204Z,0.79
2024-01-05T16:34:47.825Z,0.58
2024-01-05T16:37:19.833Z,0.40
2024-01-05T16:39:51.597Z,1.12
2024-01-05T16:42:23.622Z,3.88
2024-01-05T16:44:55.357Z,4.14
2024-01-05T16:47:27.225Z,3.09
2024-01-05T16:49:59.066Z,2.29
2024-01-05T16:52:30.846Z,1.76
2024-01-05T16:55:02.586Z,1.39
2024-01-05T16:57:34.477Z,1.05
2024-01-05T17:00:08.012Z,1.34
2024-01-05T17:02:39.881Z,3.90
2024-01-05T17:05:12.022Z,5.44
2024-01-05T17:07:44.425Z,4.62
2024-01-05T17:10:16.196Z,3.52
2024-01-05T17:12:49.062Z,2.73
2024-01-05T17:15:20.848Z,2.15
2024-01-05T17:17:53.597Z,1.74
2024-01-05T17:20:26.694Z,1.38
2024-01-05T17:22:59.874Z,1.05
2024-01-05T17:25:31.624Z,0.77
2024-01-05T17:28:03.566Z,1.55
2024-01-05T17:30:35.324Z,4.24
2024-01-05T17:33:08.036Z,4.81
2024-01-05T17:35:39.737Z,3.77
2024-01-05T17:38:12.470Z,2.88
2024-01-05T17:40:45.013Z,2.23
2024-01-05T17:43:17.253Z,1.72
2024-01-05T17:45:49.003Z,1.34
2024-01-05T17:48:21.235Z,1.06
2024-01-05T17:50:54.074Z,0.83
2024-01-05T17:53:25.939Z,1.22
2024-01-05T17:55:57.680Z,3.87
2024-01-05T17:58:29.381Z,5.50
2024-01-05T18:01:01.136Z,4.71
2024-01-05T18:03:32.976Z,3.56
2024-01-05T18:06:09.997Z,2.71
2024-01-05T18:08:41.981Z,2.09
2024-01-05T18:11:24.250Z,1.69
2024-01-05T18:13:56.393Z,1.29
2024-01-05T18:16:30.436Z,0.92
2024-01-05T18:19:02.707Z,1.36
2024-01-05T18:21:34.545Z,4.05
2024-01-05T18:24:07.536Z,5.37
2024-01-05T18:26:40.434Z,4.30
2024-01-05T18:29:21.783Z,3.19
2024-01-05T18:32:00.626Z,2.37
2024-01-05T18:34:32.644Z,1.80
2024-01-05T18:37:04.826Z,1.40
2024-01-05T18:39:38.047Z,1.04
2024-01-05T18:42:10.298Z,0.76
2024-01-05T18:44:44.462Z,0.91
2024-01-05T18:47:16.744Z,3.36
2024-01-05T18:49:48.635Z,5.08
2024-01-05T18:52:19.382Z,4.19
2024-01-05T18:54:51.501Z,3.09
2024-01-05T18:57:21.773Z,2.36
2024-01-05T18:59:53.756Z,1.81
2024-01-05T19:02:25.453Z,1.41
2024-01-05T19:04:57.521Z,1.07
2024-01-05T19:07:29.935Z,0.91
2024-01-05T19:10:01.714Z,2.74
2024-01-05T19:12:33.526Z,4.83
2024-01-05T19:15:07.861Z,4.19
2024-01-05T19:17:40.624Z,3.16
2024-01-05T19:20:14.730Z,2.41
2024-01-05T19:22:46.384Z,1.87
2024-01-05T19:25:18.445Z,1.47
2024-01-05T19:27:48.650Z,1.13
2024-01-05T19:30:21.371Z,2.37
2024-01-05T19:32:53.093Z,5.01
2024-01-05T19:35:25.106Z,5.82
2024-01-05T19:37:58.342Z,4.65
2024-01-05T19:40:32.827Z,3.56
2024-01-05T19:43:04.687Z,2.80
2024-01-05T19:45:35.396Z,2.21
2024-01-05T19:48:08.846Z,1.72
2024-01-05T19:50:41.279Z,1.32
2024-01-05T19:53:11.460Z,1.68
2024-01-05T19:55:43.315Z,4.36
2024-01-05T19:58:15.025Z,4.84
2024-01-05T20:00:47.239Z,3.60
2024-01-05T20:03:17.503Z,2.61
2024-01-05T20:05:50.387Z,1.97
2024-01-05T20:08:22.160Z,1.46
2024-01-05T20:10:53.940Z,1.07
2024-01-05T20:13:25.865Z,0.87
2024-01-05T20:15:57.579Z,2.75
2024-01-05T20:18:29.532Z,4.90
2024-01-05T20:21:00.086Z,4.13
2024-01-05T20:23:32.708Z,3.07
2024-01-05T20:26:04.815Z,2.22
2024-01-05T20:28:37.280Z,1.58
2024-01-05T20:31:09.466Z,1.45
2024-01-05T20:33:41.533Z,3.67
2024-01-05T20:36:13.524Z,5.17
2024-01-05T20:38:45.329Z,4.24
2024-01-05T20:41:17.200Z,3.17
2024-01-05T20:43:48.916Z,2.40
2024-01-05T20:46:21.416Z,1.83
2024-01-05T20:48:53.310Z,1.38
2024-01-05T20:51:25.581Z,1.92
2024-01-05T20:53:58.962Z,4.44
2024-01-05T20:56:30.853Z,5.22
2024-01-05T20:59:02.585Z,4.16
2024-01-05T21:01:34.908Z,3.16
2024-01-05T21:04:07.686Z,2.37
2024-01-05T21:06:44.447Z,1.81
2024-01-05T21:09:16.740Z,1.38
2024-01-05T21:11:48.530Z,1.07
2024-01-05T21:14:20.260Z,2.50
2024-01-05T21:16:53.543Z,4.69
2024-01-05T21:19:25.324Z,4.21
2024-01-05T21:21:57.465Z,3.21
2024-01-05T21:24:29.159Z,2.45
2024-01-05T21:27:01.749Z,1.93
2024-01-05T21:29:33.467Z,1.52
2024-01-05T21:32:06.169Z,1.20
2024-01-05T21:34:40.756Z,0.95
2024-01-05T21:37:13.962Z,0.77
2024-01-05T21:39:45.855Z,2.20
2024-01-05T21:42:16.515Z,4.73
2024-01-05T21:44:48.755Z,4.50
2024-01-05T21:47:21.338Z,3.49
2024-01-05T21:49:54.312Z,2.68
2024-01-05T21:52:26.201Z,2.09
2024-01-05T21:54:57.920Z,1.68
2024-01-05T21:57:31.958Z,1.33
2024-01-05T22:00:03.686Z,1.14
2024-01-05T22:02:35.404Z,2.95
2024-01-05T22:05:08.055Z,5.14
2024-01-05T22:07:39.776Z,4.79
2024-01-05T22:10:13.690Z,3.64
2024-01-05T22:12:46.867Z,2.78
2024-01-05T22:15:18.718Z,2.17
2024-01-05T22:17:50.626Z,1.72
2024-01-05T22:20:21.949Z,1.38
2024-01-05T22:22:53.805Z,1.06
2024-01-05T22:25:26.237Z,1.64
2024-01-05T22:27:57.984Z,4.32
2024-01-05T22:30:29.736Z,4.80
2024-01-05T22:33:02.117Z,3.81
2024-01-05T22:35:33.976Z,2.94
2024-01-05T22:38:05.857Z,2.32
2024-01-05T22:40:37.602Z,1.86
2024-01-05T22:43:10.395Z,1.45
2024-01-05T22:45:42.667Z,1.13
2024-01-05T22:48:15.110Z,1.49
2024-01-05T22:50:48.089Z,4.05
2024-01-05T22:53:19.796Z,5.29
2024-01-05T22:55:51.900Z,4.38
2024-01-05T22:58:22.079Z,3.39
2024-01-05T23:00:54.022Z,2.61
2024-01-05T23:03:26.267Z,2.12
2024-01-05T23:05:59.580Z,1.68
2024-01-05T23:08:31.333Z,1.32
2024-01-05T23:11:02.984Z,1.12
2024-01-05T23:13:34.994Z,2.71
2024-01-05T23:16:07.881Z,4.97
2024-01-05T23:18:39.715Z,4.56
2024-01-05T23:21:10.181Z,3.48
2024-01-05T23:23:42.104Z,2.69
2024-01-05T23:26:20.257Z,2.18
2024-01-05T23:28:54.229Z,1.80
2024-01-05T23:31:26.506Z,1.47
2024-01-05T23:34:08.570Z,1.21
2024-01-05T23:36:47.754Z,1.28
2024-01-05T23:39:18.521Z,3.59
2024-01-05T23:41:50.275Z,5.46
2024-01-05T23:44:22.368Z,4.77
2024-01-05T23:46:55.779Z,3.80
2024-01-05T23:49:30.692Z,3.10
2024-01-05T23:52:02.742Z,2.51
2024-01-05T23:54:34.544Z,2.06
2024-01-05T23:57:05.672Z,1.74
2024-01-05T23:59:37.012Z,1.47
